Time;durP1;ratioP1;P1;durP2;ratioP2;P2;SDS_P1;SDS_P2;PMS_P1;PMS_P2;Temp;Humidity;BMP_temperature;BMP_pressure;BME280_temperature;BME280_humidity;BME280_pressure;Samples;Min_cycle;Max_cycle;Signal;HPM_P1;HPM_P2
2023/04/14 00:00:34;;;;;;;20.27;10.82;;;;;;;8.32;100.00;99160.66;5136864;28;20047;-60
2023/04/14 00:03:00;;;;;;;20.65;11.43;;;;;;;8.24;100.00;99167.06;5136983;28;20315;-60
2023/04/14 00:05:28;;;;;;;17.90;10.82;;;;;;;8.24;100.00;99167.06;5136678;27;20107;-65
2023/04/14 00:07:54;;;;;;;19.38;9.85;;;;;;;8.41;100.00;99180.44;5136779;27;20316;-56
2023/04/14 00:10:20;;;;;;;12.85;9.35;;;;;;;8.16;100.00;99193.41;5139267;28;20141;-60
2023/04/14 00:12:46;;;;;;;18.02;10.45;;;;;;;8.51;100.00;99195.53;5140323;28;20267;-63
2023/04/14 00:15:13;;;;;;;16.90;10.50;;;;;;;8.57;100.00;99201.53;5139875;28;20051;-64
2023/04/14 00:17:39;;;;;;;16.25;10.43;;;;;;;8.51;100.00;99189.28;5140432;28;20408;-61
2023/04/14 00:20:06;;;;;;;25.15;11.68;;;;;;;8.42;100.00;99189.44;5139786;28;20047;-60
2023/04/14 00:22:32;;;;;;;18.45;10.60;;;;;;;8.50;100.00;99161.16;5140399;28;20138;-64
2023/04/14 00:24:57;;;;;;;22.45;10.93;;;;;;;8.42;100.00;99145.72;5139737;28;20047;-64
2023/04/14 00:27:24;;;;;;;21.48;9.18;;;;;;;8.42;100.00;99148.44;5140050;28;20174;-64
2023/04/14 00:29:49;;;;;;;22.00;10.88;;;;;;;8.33;100.00;99164.16;5140122;28;20075;-57
2023/04/14 00:32:16;;;;;;;17.13;10.30;;;;;;;8.28;100.00;99170.69;5139739;28;20499;-58
2023/04/14 00:34:42;;;;;;;16.17;9.60;;;;;;;8.39;100.00;99152.66;5139746;28;20058;-58
2023/04/14 00:37:08;;;;;;;15.05;9.05;;;;;;;8.36;100.00;99152.53;5139828;28;20047;-60
2023/04/14 00:39:34;;;;;;;14.65;10.00;;;;;;;8.24;100.00;99162.41;5139595;27;20059;-63
2023/04/14 00:42:00;;;;;;;21.55;9.55;;;;;;;8.44;100.00;99165.28;5139725;28;20282;-64
2023/04/14 00:44:26;;;;;;;14.70;8.65;;;;;;;8.51;100.00;99179.13;5139901;28;20058;-62
2023/04/14 00:46:52;;;;;;;17.48;8.63;;;;;;;8.36;100.00;99201.72;5139473;28;20435;-64
2023/04/14 00:49:19;;;;;;;16.50;8.55;;;;;;;8.37;100.00;99200.59;5139935;28;20043;-60
2023/04/14 00:51:47;;;;;;;17.92;8.88;;;;;;;8.36;100.00;99199.78;5139498;28;20335;-56
2023/04/14 00:54:15;;;;;;;14.10;8.27;;;;;;;8.16;100.00;99200.78;5139882;28;20047;-57
2023/04/14 00:56:41;;;;;;;11.73;7.80;;;;;;;8.22;100.00;99185.75;5139624;27;20074;-62
2023/04/14 00:59:07;;;;;;;13.32;8.10;;;;;;;8.42;100.00;99175.78;5139503;28;20055;-56
2023/04/14 01:01:35;;;;;;;13.70;7.95;;;;;;;8.41;100.00;99182.38;5139305;28;20508;-56
2023/04/14 01:04:02;;;;;;;13.68;7.90;;;;;;;8.17;100.00;99170.41;5139249;28;20086;-58
2023/04/14 01:06:28;;;;;;;16.20;8.13;;;;;;;8.36;100.00;99139.69;5139628;28;20061;-57
2023/04/14 01:08:55;;;;;;;15.82;8.10;;;;;;;8.25;100.00;99141.34;5139326;28;20047;-60
2023/04/14 01:11:29;;;;;;;14.07;8.15;;;;;;;8.44;100.00;99133.31;5139570;27;20066;-61
2023/04/14 01:14:03;;;;;;;15.50;9.05;;;;;;;8.53;100.00;99145.97;5139068;28;20134;-62
2023/04/14 01:16:32;;;;;;;16.60;9.13;;;;;;;8.46;100.00;99149.31;5139607;28;20138;-63
2023/04/14 01:19:16;;;;;;;14.45;8.63;;;;;;;8.47;100.00;99154.47;5139008;28;20050;-63
2023/04/14 01:21:47;;;;;;;11.93;7.90;;;;;;;8.50;100.00;99163.91;5137852;27;20051;-59
2023/04/14 01:24:36;;;;;;;13.73;7.93;;;;;;;8.47;100.00;99175.53;5139295;28;20043;-60
2023/04/14 01:27:06;;;;;;;12.70;8.35;;;;;;;8.41;100.00;99177.72;5139040;28;20047;-60
2023/04/14 01:30:09;;;;;;;12.68;8.80;;;;;;;8.51;100.00;99187.34;5139316;27;20051;-64
2023/04/14 01:32:41;;;;;;;17.90;10.10;;;;;;;8.51;100.00;99184.59;5036229;28;20140;-59
2023/04/14 01:35:12;;;;;;;12.35;8.75;;;;;;;8.43;100.00;99163.69;5123760;28;20055;-63
2023/04/14 01:37:45;;;;;;;15.95;9.57;;;;;;;8.18;100.00;99174.72;5138788;28;20049;-57
2023/04/14 01:40:15;;;;;;;15.98;9.10;;;;;;;8.42;100.00;99154.69;5138694;28;20138;-59
2023/04/14 01:42:46;;;;;;;18.48;9.10;;;;;;;8.10;100.00;99147.59;5139058;28;20145;-64
2023/04/14 01:45:20;;;;;;;16.23;9.90;;;;;;;8.02;100.00;99122.00;5138746;28;20332;-58
2023/04/14 01:47:47;;;;;;;16.77;9.57;;;;;;;8.01;100.00;99123.16;5139054;28;20196;-60
2023/04/14 01:50:15;;;;;;;16.08;10.25;;;;;;;8.21;100.00;99105.75;5138562;28;20153;-61
2023/04/14 01:52:44;;;;;;;16.85;10.00;;;;;;;8.20;100.00;99111.56;5139028;28;20412;-60
2023/04/14 01:55:11;;;;;;;15.80;10.32;;;;;;;8.10;100.00;99106.63;5139046;28;20051;-60
2023/04/14 01:57:39;;;;;;;18.20;9.77;;;;;;;8.06;100.00;99109.22;5138580;28;20055;-63
2023/04/14 02:00:08;;;;;;;19.98;11.52;;;;;;;8.20;100.00;99106.13;5138608;27;20054;-64
2023/04/14 02:02:36;;;;;;;19.38;10.15;;;;;;;8.17;100.00;99102.13;5138509;28;20058;-58
2023/04/14 02:05:03;;;;;;;22.95;10.60;;;;;;;8.15;100.00;99106.34;5138596;27;20050;-60
2023/04/14 02:07:31;;;;;;;21.38;9.52;;;;;;;8.28;100.00;99113.34;5138377;28;20094;-63
2023/04/14 02:09:59;;;;;;;23.48;11.73;;;;;;;8.15;100.00;99120.00;5138661;27;20144;-60
2023/04/14 02:12:27;;;;;;;25.70;11.55;;;;;;;8.27;100.00;99122.69;5138256;28;20047;-64
2023/04/14 02:14:54;;;;;;;20.75;10.77;;;;;;;8.21;100.00;99124.88;5138187;28;20077;-59
2023/04/14 02:17:20;;;;;;;19.30;10.80;;;;;;;8.11;100.00;99127.31;5138119;28;20138;-63
2023/04/14 02:19:48;;;;;;;17.95;10.73;;;;;;;8.05;100.00;99115.06;5138306;28;20380;-63
2023/04/14 02:22:14;;;;;;;19.88;11.57;;;;;;;8.11;100.00;99109.00;5138027;28;20043;-63
2023/04/14 02:24:40;;;;;;;19.30;11.60;;;;;;;8.19;100.00;99110.75;5138196;28;20389;-62
2023/04/14 02:27:10;;;;;;;22.83;11.90;;;;;;;8.21;100.00;99130.31;5138270;28;20051;-61
2023/04/14 02:29:39;;;;;;;21.02;11.38;;;;;;;8.24;100.00;99129.63;5138024;28;20142;-57
2023/04/14 02:32:10;;;;;;;22.02;11.35;;;;;;;8.05;100.00;99125.97;5137746;27;20055;-62
2023/04/14 02:34:44;;;;;;;19.38;11.30;;;;;;;8.09;100.00;99100.34;5138025;28;20047;-61
2023/04/14 02:37:20;;;;;;;19.30;11.88;;;;;;;8.16;100.00;99086.09;5138225;27;20051;-60
2023/04/14 02:39:52;;;;;;;16.90;10.90;;;;;;;8.27;100.00;99086.38;5137726;27;20059;-54
2023/04/14 02:42:25;;;;;;;21.63;11.38;;;;;;;8.11;100.00;99100.81;5137932;28;20134;-58
2023/04/14 02:44:57;;;;;;;15.57;10.40;;;;;;;8.07;100.00;99102.66;5137678;28;20051;-58
2023/04/14 02:47:36;;;;;;;20.55;10.73;;;;;;;8.24;100.00;99110.50;5137643;28;20483;-61
2023/04/14 02:50:04;;;;;;;18.35;10.50;;;;;;;8.37;100.00;99121.38;5137997;28;20158;-60
2023/04/14 02:52:32;;;;;;;17.42;10.55;;;;;;;8.09;100.00;99135.84;5137554;28;20408;-57
2023/04/14 02:55:00;;;;;;;19.88;10.40;;;;;;;7.90;100.00;99124.81;5137833;28;20072;-60
2023/04/14 02:57:28;;;;;;;17.42;10.25;;;;;;;8.12;100.00;99107.06;5137551;28;20515;-63
2023/04/14 02:59:54;;;;;;;16.83;10.13;;;;;;;8.06;100.00;99105.72;5137823;28;20100;-60
2023/04/14 03:02:21;;;;;;;17.73;10.35;;;;;;;7.97;100.00;99114.88;5137453;28;20074;-62
2023/04/14 03:04:48;;;;;;;19.55;9.95;;;;;;;7.94;100.00;99121.03;5137514;28;20338;-60
2023/04/14 03:07:16;;;;;;;17.60;10.32;;;;;;;8.05;100.00;99123.25;5137628;28;20314;-57
2023/04/14 03:09:46;;;;;;;18.92;9.50;;;;;;;7.98;100.00;99135.56;5137368;28;20079;-59
2023/04/14 03:12:14;;;;;;;15.60;9.57;;;;;;;8.10;100.00;99133.94;5137647;28;20335;-56
2023/04/14 03:14:43;;;;;;;17.70;10.55;;;;;;;8.14;100.00;99143.00;5137202;27;20046;-63
2023/04/14 03:17:10;;;;;;;14.52;8.90;;;;;;;8.06;100.00;99146.66;5137680;28;20351;-57
2023/04/14 03:19:39;;;;;;;20.88;10.55;;;;;;;8.17;100.00;99145.03;5137242;27;20327;-58
2023/04/14 03:22:06;;;;;;;17.23;10.15;;;;;;;8.06;100.00;99154.84;5137572;28;20404;-65
2023/04/14 03:24:34;;;;;;;21.23;9.65;;;;;;;8.07;100.00;99160.00;5137123;28;20430;-58
2023/04/14 03:27:04;;;;;;;15.38;8.85;;;;;;;8.02;100.00;99171.94;5137657;28;20054;-60
2023/04/14 03:29:33;;;;;;;14.35;8.70;;;;;;;7.95;100.00;99182.66;5137183;28;20145;-60
2023/04/14 03:32:03;;;;;;;16.40;8.80;;;;;;;8.02;100.00;99198.44;5137305;28;20196;-64
2023/04/14 03:34:31;;;;;;;15.45;9.90;;;;;;;8.28;100.00;99195.28;5137371;27;20140;-64
2023/04/14 03:36:58;;;;;;;21.77;9.48;;;;;;;8.01;100.00;99224.97;5137141;28;20342;-57
2023/04/14 03:39:27;;;;;;;16.40;8.77;;;;;;;7.93;100.00;99225.91;5137111;28;20051;-63
2023/04/14 03:41:56;;;;;;;13.93;7.95;;;;;;;8.00;100.00;99214.41;5137030;28;20142;-64
2023/04/14 03:44:25;;;;;;;17.35;8.00;;;;;;;8.14;100.00;99225.72;5138690;27;20058;-61
2023/04/14 03:46:53;;;;;;;16.02;8.55;;;;;;;8.01;100.00;99241.34;5140625;27;20058;-60
2023/04/14 03:49:22;;;;;;;17.33;8.73;;;;;;;8.10;100.00;99246.66;5140853;27;20100;-64
2023/04/14 03:51:52;;;;;;;17.23;9.23;;;;;;;8.17;100.00;99257.78;5140466;28;20112;-60
2023/04/14 03:54:20;;;;;;;15.73;8.02;;;;;;;8.10;100.00;99263.06;5140645;28;20215;-59
2023/04/14 03:56:48;;;;;;;18.15;9.02;;;;;;;8.44;100.00;99263.66;5140643;28;20047;-61
2023/04/14 03:59:17;;;;;;;20.52;9.60;;;;;;;8.40;100.00;99281.88;5140283;28;20536;-59
2023/04/14 04:01:45;;;;;;;15.65;9.25;;;;;;;8.37;100.00;99280.59;5140321;28;20050;-59
2023/04/14 04:04:12;;;;;;;18.95;9.50;;;;;;;8.42;100.00;99282.31;5140215;28;20426;-58
2023/04/14 04:06:39;;;;;;;14.77;8.75;;;;;;;8.49;100.00;99275.09;5140372;28;20431;-59
2023/04/14 04:09:06;;;;;;;20.35;9.32;;;;;;;8.54;100.00;99295.16;5140315;28;20055;-60
2023/04/14 04:11:34;;;;;;;20.80;9.68;;;;;;;8.48;100.00;99298.13;5140599;28;20061;-61
2023/04/14 04:14:02;;;;;;;15.73;8.63;;;;;;;8.42;100.00;99287.78;5140030;28;20091;-62
2023/04/14 04:16:30;;;;;;;17.02;9.65;;;;;;;8.39;100.00;99286.53;5140450;27;20057;-65
2023/04/14 04:18:58;;;;;;;17.52;9.32;;;;;;;8.24;100.00;99292.72;5139915;28;20104;-59
2023/04/14 04:21:26;;;;;;;17.88;9.23;;;;;;;8.05;100.00;99278.88;5140102;27;20143;-63
2023/04/14 04:23:55;;;;;;;14.70;8.23;;;;;;;8.15;100.00;99259.28;5140166;27;20385;-57
2023/04/14 04:26:22;;;;;;;16.27;8.85;;;;;;;8.10;100.00;99271.25;5139859;28;20097;-62
2023/04/14 04:28:48;;;;;;;17.10;9.18;;;;;;;8.22;100.00;99278.59;5139999;27;20051;-55
2023/04/14 04:31:15;;;;;;;13.50;8.57;;;;;;;8.17;100.00;99290.56;5139803;28;20141;-60
2023/04/14 04:33:44;;;;;;;16.20;8.48;;;;;;;8.20;100.00;99298.06;5140149;28;20324;-59
2023/04/14 04:36:12;;;;;;;19.27;8.55;;;;;;;7.85;100.00;99302.44;5139704;28;20079;-60
2023/04/14 04:38:38;;;;;;;14.25;8.25;;;;;;;8.06;100.00;99294.09;5140108;28;20138;-59
2023/04/14 04:41:04;;;;;;;12.77;8.63;;;;;;;7.94;100.00;99295.72;5139590;27;20460;-56
2023/04/14 04:43:30;;;;;;;17.70;8.07;;;;;;;8.13;100.00;99286.94;5140022;28;20312;-63
2023/04/14 04:46:23;;;;;;;14.80;8.85;;;;;;;8.31;100.00;99287.44;5139393;28;20078;-62
2023/04/14 04:48:53;;;;;;;17.23;9.05;;;;;;;8.34;100.00;99316.81;5139291;28;20047;-62
2023/04/14 04:51:19;;;;;;;16.80;8.77;;;;;;;8.51;100.00;99325.91;5139773;28;20378;-61
2023/04/14 04:53:45;;;;;;;16.83;9.23;;;;;;;8.63;100.00;99343.03;5139476;28;20085;-61
2023/04/14 04:56:11;;;;;;;16.77;10.38;;;;;;;8.54;100.00;99352.53;5139228;27;20379;-58
2023/04/14 04:58:37;;;;;;;13.35;8.65;;;;;;;8.65;100.00;99351.69;5139354;28;20138;-59
2023/04/14 05:01:06;;;;;;;15.80;8.85;;;;;;;8.49;100.00;99351.59;5139763;28;20047;-57
2023/04/14 05:03:32;;;;;;;17.65;10.10;;;;;;;8.58;100.00;99359.69;5139324;28;20154;-61
2023/04/14 05:05:58;;;;;;;16.80;10.27;;;;;;;8.74;100.00;99370.66;5139475;27;20423;-61
2023/04/14 05:08:25;;;;;;;17.83;9.95;;;;;;;8.78;100.00;99377.03;5139115;27;20083;-62
2023/04/14 05:10:51;;;;;;;14.68;9.32;;;;;;;8.59;100.00;99383.13;5139266;28;20061;-62
2023/04/14 05:13:17;;;;;;;12.77;9.23;;;;;;;8.78;100.00;99382.50;5139113;28;20276;-62
2023/04/14 05:15:43;;;;;;;18.02;9.65;;;;;;;8.82;100.00;99390.78;5139327;27;20448;-60
2023/04/14 05:18:08;;;;;;;14.32;9.05;;;;;;;8.70;100.00;99410.78;5139038;28;20133;-58
2023/04/14 05:20:35;;;;;;;16.35;8.70;;;;;;;8.91;100.00;99408.66;5138891;28;20082;-55
2023/04/14 05:23:01;;;;;;;15.23;9.38;;;;;;;8.84;100.00;99416.66;5138981;28;20058;-58
2023/04/14 05:25:28;;;;;;;13.07;9.23;;;;;;;9.04;100.00;99409.41;5138765;28;20051;-60
2023/04/14 05:27:54;;;;;;;14.63;8.35;;;;;;;9.01;100.00;99414.78;5139056;28;20076;-57
2023/04/14 05:30:20;;;;;;;19.13;8.88;;;;;;;9.08;100.00;99415.75;5138676;28;20051;-63
2023/04/14 05:32:46;;;;;;;17.52;9.60;;;;;;;9.29;100.00;99434.69;5139087;28;20047;-59
2023/04/14 05:35:12;;;;;;;14.77;8.90;;;;;;;8.98;100.00;99429.13;5138528;27;20065;-63
2023/04/14 05:37:38;;;;;;;14.07;8.68;;;;;;;8.77;100.00;99432.84;5138519;27;20047;-65
2023/04/14 05:40:05;;;;;;;17.98;8.57;;;;;;;8.99;100.00;99433.47;5138647;28;20297;-63
2023/04/14 05:42:32;;;;;;;14.27;8.52;;;;;;;9.28;100.00;99437.78;5138658;28;20047;-61
2023/04/14 05:44:58;;;;;;;13.55;8.80;;;;;;;9.10;100.00;99426.38;5138562;28;20142;-54
2023/04/14 05:47:24;;;;;;;15.02;9.52;;;;;;;9.03;100.00;99423.41;5138564;28;20491;-59
2023/04/14 05:49:50;;;;;;;12.77;8.75;;;;;;;9.18;100.00;99425.41;5138568;27;20051;-66
2023/04/14 05:52:16;;;;;;;13.25;8.73;;;;;;;9.45;100.00;99434.72;5138247;27;20137;-57
2023/04/14 05:54:41;;;;;;;15.10;8.80;;;;;;;9.16;100.00;99425.78;5138529;28;20078;-57
2023/04/14 05:57:07;;;;;;;18.80;9.00;;;;;;;9.24;100.00;99425.97;5138059;28;20051;-54
2023/04/14 05:59:34;;;;;;;22.27;10.60;;;;;;;9.23;100.00;99413.41;5138491;27;20137;-55
2023/04/14 06:02:04;;;;;;;18.92;9.13;;;;;;;9.47;100.00;99421.50;5137943;28;20154;-58
2023/04/14 06:04:29;;;;;;;15.30;9.70;;;;;;;9.31;100.00;99385.09;5138570;28;20047;-63
2023/04/14 06:06:57;;;;;;;14.48;9.30;;;;;;;9.08;100.00;99361.06;5137068;27;20399;-61
2023/04/14 06:09:23;;;;;;;12.93;9.00;;;;;;;9.24;100.00;99363.84;5138177;28;20062;-66
2023/04/14 06:11:49;;;;;;;17.27;9.80;;;;;;;9.14;100.00;99326.06;5138078;28;20145;-63
2023/04/14 06:14:15;;;;;;;15.02;9.90;;;;;;;9.50;100.00;99340.66;5137830;28;20158;-61
2023/04/14 06:16:41;;;;;;;14.07;9.52;;;;;;;9.48;100.00;99342.94;5137775;28;20388;-61
2023/04/14 06:19:07;;;;;;;17.88;10.02;;;;;;;9.35;100.00;99314.84;5137964;28;20361;-56
2023/04/14 06:21:33;;;;;;;12.55;10.10;;;;;;;9.47;100.00;99316.72;5137970;28;20090;-55
2023/04/14 06:23:59;;;;;;;18.80;11.30;;;;;;;9.39;100.00;99352.09;5137755;28;20051;-61
2023/04/14 06:26:25;;;;;;;22.52;11.40;;;;;;;9.30;100.00;99384.31;5137877;28;20047;-60
2023/04/14 06:28:51;;;;;;;20.95;10.80;;;;;;;9.63;100.00;99391.41;5137511;28;20102;-69
2023/04/14 06:31:17;;;;;;;18.98;12.07;;;;;;;9.48;100.00;99387.50;5137894;27;20059;-69
2023/04/14 06:33:43;;;;;;;22.70;12.75;;;;;;;9.41;100.00;99390.84;5137776;28;20046;-70
2023/04/14 06:36:12;;;;;;;18.00;11.52;;;;;;;9.41;100.00;99412.75;5137994;28;20130;-71
2023/04/14 06:38:37;;;;;;;23.60;12.93;;;;;;;9.52;100.00;99415.75;5137671;28;20137;-64
2023/04/14 06:41:04;;;;;;;20.63;11.82;;;;;;;9.38;100.00;99393.50;5137568;28;20061;-64
2023/04/14 06:43:30;;;;;;;21.67;12.73;;;;;;;9.59;100.00;99417.88;5137686;28;20134;-56
2023/04/14 06:45:55;;;;;;;23.38;12.38;;;;;;;9.72;100.00;99407.66;5137476;28;20191;-69
2023/04/14 06:48:21;;;;;;;20.00;13.23;;;;;;;9.46;100.00;99410.88;5137429;28;20051;-64
2023/04/14 06:50:53;;;;;;;19.63;12.52;;;;;;;9.81;100.00;99400.06;5137286;28;20301;-66
2023/04/14 06:53:20;;;;;;;21.02;11.63;;;;;;;9.76;100.00;99403.84;5137675;27;20047;-60
2023/04/14 06:55:45;;;;;;;20.25;12.57;;;;;;;10.25;100.00;99373.31;5137220;28;20082;-63
2023/04/14 06:58:11;;;;;;;25.60;13.13;;;;;;;10.28;100.00;99319.78;5137540;27;20109;-71
2023/04/14 07:00:37;;;;;;;17.42;12.50;;;;;;;10.04;100.00;99310.63;5136930;27;20051;-63
2023/04/14 07:03:03;;;;;;;19.77;12.75;;;;;;;10.17;100.00;99289.38;5137592;28;20138;-62
2023/04/14 07:05:29;;;;;;;20.10;12.00;;;;;;;10.41;100.00;99262.88;5136886;28;20078;-61
2023/04/14 07:07:56;;;;;;;19.58;11.77;;;;;;;10.18;100.00;99249.06;5137244;27;20050;-58
2023/04/14 07:10:21;;;;;;;19.38;12.20;;;;;;;10.57;100.00;99260.84;5137199;28;20082;-65
2023/04/14 07:12:47;;;;;;;22.13;12.40;;;;;;;10.60;100.00;99159.50;5137204;27;20200;-61
2023/04/14 07:15:13;;;;;;;21.90;12.52;;;;;;;10.58;100.00;99171.97;5137254;27;20200;-55
2023/04/14 07:17:39;;;;;;;18.10;11.98;;;;;;;10.13;100.00;99066.63;5137450;27;20138;-62
2023/04/14 07:20:07;;;;;;;23.02;12.45;;;;;;;10.54;100.00;99133.53;5140707;27;20418;-63
2023/04/14 07:22:33;;;;;;;20.35;12.32;;;;;;;10.76;100.00;99120.16;5140411;28;20111;-59
2023/04/14 07:24:59;;;;;;;17.98;12.73;;;;;;;10.96;100.00;99116.22;5140901;28;20051;-60
2023/04/14 07:27:27;;;;;;;18.60;12.98;;;;;;;10.67;100.00;99084.78;5140463;28;20050;-62
2023/04/14 07:29:53;;;;;;;20.98;12.70;;;;;;;10.74;100.00;99109.59;5140758;28;20142;-59
2023/04/14 07:32:20;;;;;;;20.60;12.25;;;;;;;10.70;100.00;99062.13;5140232;28;20150;-57
2023/04/14 07:34:46;;;;;;;19.20;11.85;;;;;;;10.63;100.00;98974.31;5140495;27;20087;-55
2023/04/14 07:37:12;;;;;;;21.90;12.23;;;;;;;10.36;100.00;98949.63;5140169;27;20474;-54
2023/04/14 07:39:38;;;;;;;18.58;12.23;;;;;;;10.69;100.00;99076.97;5140334;28;20278;-64
2023/04/14 07:42:05;;;;;;;18.50;11.60;;;;;;;10.79;100.00;98952.97;5140405;28;20115;-56
2023/04/14 07:44:32;;;;;;;18.75;12.52;;;;;;;10.44;100.00;98977.94;5140467;28;20043;-64
2023/04/14 07:46:57;;;;;;;21.15;13.27;;;;;;;11.04;100.00;99054.00;5140587;28;20046;-63
2023/04/14 07:49:23;;;;;;;21.80;12.20;;;;;;;11.06;100.00;98961.94;5140154;28;20066;-64
2023/04/14 07:51:49;;;;;;;17.40;12.25;;;;;;;10.96;100.00;98915.16;5140307;28;20055;-63
2023/04/14 07:54:15;;;;;;;17.80;11.10;;;;;;;11.26;100.00;98934.34;5140017;27;20111;-57
2023/04/14 07:56:41;;;;;;;19.83;11.35;;;;;;;10.86;100.00;98833.56;5140322;28;20051;-56
2023/04/14 07:59:08;;;;;;;18.48;12.07;;;;;;;10.64;100.00;98789.47;5139986;28;20354;-59
2023/04/14 08:01:34;;;;;;;19.15;12.00;;;;;;;10.75;100.00;98773.91;5140231;27;20142;-56
2023/04/14 08:04:00;;;;;;;19.05;11.98;;;;;;;11.19;100.00;98780.59;5139626;27;20043;-58
2023/04/14 08:06:27;;;;;;;19.27;10.93;;;;;;;11.10;100.00;98662.97;5139788;28;20382;-59
2023/04/14 08:08:53;;;;;;;16.98;10.98;;;;;;;11.18;100.00;98615.19;5139622;27;20055;-54
2023/04/14 08:11:19;;;;;;;19.85;11.55;;;;;;;11.45;100.00;98587.53;5139836;28;20054;-55
2023/04/14 08:13:45;;;;;;;21.13;11.88;;;;;;;11.08;100.00;98550.09;5139758;27;20385;-58
2023/04/14 08:16:11;;;;;;;16.20;10.68;;;;;;;11.58;100.00;98642.88;5139461;28;20412;-57
2023/04/14 08:18:39;;;;;;;16.65;12.18;;;;;;;11.95;100.00;98583.03;5139853;28;20074;-60
2023/04/14 08:21:05;;;;;;;19.83;12.23;;;;;;;12.35;100.00;98486.94;5139537;28;20171;-55
2023/04/14 08:23:31;;;;;;;19.33;11.07;;;;;;;12.22;100.00;98278.47;5140055;28;20085;-55
2023/04/14 08:25:57;;;;;;;17.10;11.45;;;;;;;11.96;100.00;98188.28;5139496;27;20374;-57
2023/04/14 08:28:23;;;;;;;16.58;10.13;;;;;;;11.51;100.00;98229.94;5139760;28;20050;-57
2023/04/14 08:30:49;;;;;;;18.70;11.70;;;;;;;11.77;100.00;98179.31;5138369;27;20481;-56
2023/04/14 08:33:16;;;;;;;14.02;10.15;;;;;;;11.62;100.00;98166.00;5139628;27;20047;-54
2023/04/14 08:35:42;;;;;;;15.43;10.60;;;;;;;12.32;100.00;98183.44;5139184;28;20436;-57
2023/04/14 08:38:08;;;;;;;17.48;10.20;;;;;;;12.36;100.00;98074.28;5139432;27;20050;-57
2023/04/14 08:40:37;;;;;;;18.23;11.15;;;;;;;13.00;100.00;98055.69;5139541;28;20051;-59
2023/04/14 08:43:03;;;;;;;21.17;11.48;;;;;;;13.01;100.00;98060.78;5140523;27;20051;-63
2023/04/14 08:45:30;;;;;;;14.77;9.75;;;;;;;12.34;100.00;98054.66;5139517;28;20054;-58
2023/04/14 08:47:58;;;;;;;15.85;10.15;;;;;;;12.06;100.00;98068.56;5139170;28;20058;-63
2023/04/14 08:50:30;;;;;;;16.45;9.80;;;;;;;12.07;100.00;98062.69;5139656;28;20130;-59
2023/04/14 08:53:01;;;;;;;15.95;10.00;;;;;;;12.21;100.00;98073.56;5139371;28;20047;-61
2023/04/14 08:55:28;;;;;;;18.17;9.90;;;;;;;11.99;100.00;98058.41;5139545;28;20055;-60
2023/04/14 08:57:54;;;;;;;19.77;9.63;;;;;;;12.31;100.00;98055.44;5139205;28;20137;-61
2023/04/14 09:00:21;;;;;;;14.73;9.98;;;;;;;11.88;100.00;98057.69;5139433;27;20103;-55
2023/04/14 09:02:48;;;;;;;16.95;11.13;;;;;;;12.24;100.00;98052.75;5139317;28;20138;-59
2023/04/14 09:05:14;;;;;;;19.52;10.45;;;;;;;12.33;100.00;98052.28;5138981;27;20328;-60
2023/04/14 09:07:41;;;;;;;15.05;9.60;;;;;;;12.13;100.00;98049.28;5139239;28;20051;-58
2023/04/14 09:10:10;;;;;;;11.13;8.70;;;;;;;12.58;100.00;98047.41;5139129;28;20222;-63
2023/04/14 09:12:38;;;;;;;18.30;10.85;;;;;;;12.39;100.00;98051.47;5139318;27;20047;-60
2023/04/14 09:15:05;;;;;;;23.02;10.02;;;;;;;11.64;100.00;98048.34;5138800;28;20134;-59
2023/04/14 09:17:31;;;;;;;18.13;9.90;;;;;;;11.93;100.00;98046.28;5139166;27;20192;-59
2023/04/14 09:19:58;;;;;;;15.00;10.05;;;;;;;12.35;100.00;98063.66;5138715;28;20188;-63
2023/04/14 09:22:26;;;;;;;16.52;9.48;;;;;;;12.43;100.00;98046.75;5138952;27;20077;-60
2023/04/14 09:24:53;;;;;;;17.90;10.02;;;;;;;12.86;100.00;98042.81;5138643;28;20383;-61
2023/04/14 09:27:19;;;;;;;17.75;10.25;;;;;;;12.34;100.00;98075.84;5139022;27;20051;-62
2023/04/14 09:29:46;;;;;;;14.10;9.77;;;;;;;12.18;100.00;98048.88;5138510;27;20047;-63
2023/04/14 09:32:12;;;;;;;14.73;10.55;;;;;;;12.32;100.00;98053.47;5138728;28;20054;-57
2023/04/14 09:34:49;;;;;;;19.02;10.63;;;;;;;12.41;100.00;98049.09;5138563;28;20047;-55
2023/04/14 09:37:15;;;;;;;19.95;10.90;;;;;;;12.25;100.00;98079.03;5138464;28;20093;-56
2023/04/14 09:39:47;;;;;;;17.20;10.57;;;;;;;12.58;100.00;98049.38;5138484;28;20043;-63
2023/04/14 09:42:15;;;;;;;12.80;8.90;;;;;;;12.26;100.00;98053.13;5136958;27;20070;-62
2023/04/14 09:44:52;;;;;;;18.42;10.52;;;;;;;12.19;100.00;98059.44;5138421;28;20047;-55
2023/04/14 09:47:19;;;;;;;20.23;10.88;;;;;;;12.16;100.00;98051.22;5138177;28;20047;-62
2023/04/14 09:49:55;;;;;;;14.25;9.48;;;;;;;12.30;100.00;98067.63;5138667;28;20043;-56
2023/04/14 09:52:21;;;;;;;22.20;10.50;;;;;;;11.71;100.00;98084.78;5138278;27;20059;-61
2023/04/14 09:54:47;;;;;;;14.77;10.30;;;;;;;11.40;100.00;98061.00;5138435;28;20431;-63
2023/04/14 09:57:25;;;;;;;20.42;10.05;;;;;;;11.43;100.00;98060.19;5138387;28;20078;-63
2023/04/14 09:59:51;;;;;;;17.85;9.98;;;;;;;11.98;100.00;98056.84;5138086;27;20051;-57
2023/04/14 10:02:16;;;;;;;19.33;9.07;;;;;;;12.01;100.00;98098.03;5138246;28;20058;-57
2023/04/14 10:04:42;;;;;;;14.73;9.13;;;;;;;11.64;100.00;98127.97;5138102;28;20139;-62
2023/04/14 10:07:10;;;;;;;13.23;8.75;;;;;;;12.34;100.00;98100.59;5138480;28;20166;-63
2023/04/14 10:09:37;;;;;;;17.30;9.52;;;;;;;12.05;100.00;98172.16;5137969;27;20059;-60
2023/04/14 10:12:08;;;;;;;16.27;9.10;;;;;;;12.14;100.00;98144.28;5138437;28;20138;-61
2023/04/14 10:14:35;;;;;;;16.20;9.98;;;;;;;12.50;100.00;98135.84;5137668;28;20133;-57
2023/04/14 10:17:01;;;;;;;14.63;9.32;;;;;;;12.32;100.00;98174.41;5137764;28;20054;-62
2023/04/14 10:19:28;;;;;;;13.93;9.15;;;;;;;12.50;100.00;98172.34;5138094;27;20108;-55
2023/04/14 10:21:54;;;;;;;19.65;9.48;;;;;;;12.21;100.00;98175.25;5137950;28;20111;-61
2023/04/14 10:24:21;;;;;;;12.88;8.70;;;;;;;12.47;100.00;98178.66;5138021;28;20074;-58
2023/04/14 10:26:48;;;;;;;12.40;9.02;;;;;;;11.95;100.00;98164.75;5137972;28;20091;-60
2023/04/14 10:29:15;;;;;;;18.50;9.18;;;;;;;12.08;100.00;98157.63;5138079;27;20108;-63
2023/04/14 10:31:47;;;;;;;18.45;10.15;;;;;;;12.19;100.00;98171.31;5137732;28;20100;-62
2023/04/14 10:34:14;;;;;;;23.75;10.80;;;;;;;12.36;100.00;98173.22;5138178;28;20043;-61
2023/04/14 10:36:42;;;;;;;18.33;9.00;;;;;;;12.57;100.00;98175.06;5137470;27;20051;-62
2023/04/14 10:39:10;;;;;;;14.95;8.93;;;;;;;12.39;100.00;98164.16;5138032;27;20141;-63
2023/04/14 10:41:45;;;;;;;15.90;9.73;;;;;;;12.08;100.00;98195.31;5137397;27;20047;-60
2023/04/14 10:44:22;;;;;;;15.38;9.57;;;;;;;12.54;100.00;98188.81;5137548;28;20407;-58
2023/04/14 10:46:49;;;;;;;17.10;10.02;;;;;;;12.75;100.00;98207.16;5137694;28;20043;-62
2023/04/14 10:49:15;;;;;;;16.13;9.52;;;;;;;12.81;100.00;98189.06;5137538;28;20336;-56
2023/04/14 10:51:42;;;;;;;18.35;9.68;;;;;;;12.10;100.00;98184.72;5137661;28;20051;-62
2023/04/14 10:54:14;;;;;;;13.80;9.68;;;;;;;12.53;100.00;98168.00;5137167;27;20432;-58
2023/04/14 10:56:41;;;;;;;15.85;9.40;;;;;;;12.06;100.00;98197.66;5137512;28;20447;-64
2023/04/14 10:59:09;;;;;;;14.55;9.57;;;;;;;12.56;100.00;98220.25;5137349;28;20107;-58
2023/04/14 11:01:36;;;;;;;19.30;9.15;;;;;;;12.64;100.00;98242.97;5137560;27;20141;-58
2023/04/14 11:04:17;;;;;;;22.10;9.25;;;;;;;12.59;100.00;98287.38;5136711;28;20103;-61
2023/04/14 11:06:53;;;;;;;14.43;9.02;;;;;;;12.30;100.00;98275.72;5136663;27;20066;-61
2023/04/14 11:09:32;;;;;;;14.10;8.15;;;;;;;12.51;100.00;98305.88;5137020;27;20051;-56
2023/04/14 11:12:03;;;;;;;16.75;8.88;;;;;;;12.15;100.00;98303.22;5137120;28;20119;-57
2023/04/14 11:14:30;;;;;;;16.33;8.20;;;;;;;12.12;100.00;98300.47;5137171;28;20138;-56
2023/04/14 11:17:01;;;;;;;15.13;8.35;;;;;;;12.39;100.00;98303.53;5137053;27;20138;-59
2023/04/14 11:19:28;;;;;;;15.23;8.77;;;;;;;12.27;100.00;98334.22;5137353;28;20483;-61
2023/04/14 11:21:54;;;;;;;17.77;8.77;;;;;;;12.79;100.00;98309.66;5136897;28;20142;-63